This is the latest recevied weather packets stored in our database for station/object SR3WXD. If no packets are shown the sender has not sent any weather packets the latest 1 day(s).
| Time | Temp. | Humidity | Pressure | Rain* | Wind** | Luminosity | Snow |
|---|---|---|---|---|---|---|---|
| 1788543306 | 18.33° C | 86% | 989.8 hPa | 1.02 mm | - | - | - |
| 1788541506 | 19.44° C | 80% | 989.3 hPa | 1.02 mm | - | - | - |
| 1788539728 | 24.44° C | 56% | 987.3 hPa | 0 mm | - | - | - |
| 1788537906 | 24.44° C | 57% | 987.8 hPa | 0 mm | - | - | - |
| 1788536105 | 24.44° C | 57% | 988.3 hPa | 0 mm | - | - | - |
| 1788534305 | 24.44° C | 58% | 988.2 hPa | 0 mm | - | - | - |
| 1788532505 | 24.44° C | 59% | 988.8 hPa | 0 mm | - | - | - |
| 1788530705 | 24.44° C | 58% | 989 hPa | 0 mm | - | - | - |
| 1788528902 | 24.44° C | 57% | 989.5 hPa | 0 mm | - | - | - |
| 1788527102 | 25° C | 56% | 990 hPa | 0 mm | - | - | - |
| 1788525277 | 25° C | 57% | 990.7 hPa | 0 mm | - | - | - |
| 1788523477 | 22.78° C | 63% | 991.5 hPa | 0 mm | - | - | - |
| 1788521677 | 22.78° C | 65% | 992 hPa | 0 mm | - | - | - |
| 1788519876 | 22.22° C | 67% | 992.7 hPa | 0 mm | - | - | - |
| 1788518076 | 22.22° C | 66% | 993 hPa | 0 mm | - | - | - |
| 1788516276 | 21.11° C | 70% | 993.3 hPa | 0 mm | - | - | - |
| 1788514476 | 22.78° C | 62% | 993.8 hPa | 0 mm | - | - | - |
| 1788513573 | 21.67° C | 67% | 994 hPa | 0 mm | - | - | - |
| 1788513406 | 21.67° C | 67% | 994 hPa | 0 mm | - | - | - |
| 1788513336 | 21.67° C | 67% | 994 hPa | 0 mm | - | - | - |
| 1788513312 | 21.67° C | 67% | 994.2 hPa | 0 mm | - | - | - |
| 1788512044 | 21.67° C | 66% | 994.5 hPa | 0 mm | - | - | - |
| 1788512003 | 21.67° C | 65% | 994.2 hPa | 0 mm | - | - | - |
| 1788511973 | 21.67° C | 65% | 994.2 hPa | 0 mm | - | - | - |
| 1788511011 | 22.22° C | 63% | 994.3 hPa | 0 mm | - | - | - |
* Rain latest hour (hover to see other rain measurements)
** Current wind speed in m/s (hover to see current wind gust speed)